createdAt,value
2023-12-23T00:00:46.830Z,100.00
2023-12-23T00:03:26.967Z,100.00
2023-12-23T00:06:07.322Z,100.00
2023-12-23T00:08:50.463Z,100.00
2023-12-23T00:11:30.003Z,100.00
2023-12-23T00:14:10.009Z,100.00
2023-12-23T00:16:49.643Z,100.00
2023-12-23T00:19:29.928Z,100.00
2023-12-23T00:22:09.455Z,100.00
2023-12-23T00:24:49.109Z,100.00
2023-12-23T00:27:30.126Z,100.00
2023-12-23T00:30:10.658Z,100.00
2023-12-23T00:32:52.458Z,100.00
2023-12-23T00:35:31.878Z,100.00
2023-12-23T00:38:11.597Z,100.00
2023-12-23T00:40:51.611Z,100.00
2023-12-23T00:43:34.795Z,100.00
2023-12-23T00:46:14.807Z,100.00
2023-12-23T00:48:54.409Z,100.00
2023-12-23T00:51:33.882Z,100.00
2023-12-23T00:54:14.032Z,100.00
2023-12-23T00:56:53.819Z,100.00
2023-12-23T00:59:33.560Z,100.00
2023-12-23T01:02:13.321Z,100.00
2023-12-23T01:04:55.600Z,100.00
2023-12-23T01:07:35.584Z,100.00
2023-12-23T01:10:15.384Z,100.00
2023-12-23T01:12:55.679Z,100.00
2023-12-23T01:15:35.367Z,100.00
2023-12-23T01:18:15.221Z,100.00
2023-12-23T01:20:56.818Z,100.00
2023-12-23T01:23:36.335Z,100.00
2023-12-23T01:26:16.016Z,100.00
2023-12-23T01:29:01.580Z,100.00
2023-12-23T01:31:41.204Z,100.00
2023-12-23T01:34:20.723Z,100.00
2023-12-23T01:37:00.934Z,100.00
2023-12-23T01:39:41.042Z,100.00
2023-12-23T01:42:20.605Z,100.00
2023-12-23T01:45:00.245Z,100.00
2023-12-23T01:47:45.910Z,100.00
2023-12-23T01:50:28.730Z,100.00
2023-12-23T01:53:08.667Z,100.00
2023-12-23T01:55:48.658Z,100.00
2023-12-23T01:58:28.360Z,100.00
2023-12-23T02:01:08.180Z,100.00
2023-12-23T02:03:48.582Z,100.00
2023-12-23T02:06:28.092Z,100.00
2023-12-23T02:09:08.165Z,100.00
2023-12-23T02:12:11.454Z,100.00
2023-12-23T02:15:05.983Z,100.00
2023-12-23T02:17:45.864Z,100.00
2023-12-23T02:20:25.501Z,100.00
2023-12-23T02:23:05.878Z,100.00
2023-12-23T02:25:51.101Z,100.00
2023-12-23T02:28:30.984Z,100.00
2023-12-23T02:31:12.666Z,100.00
2023-12-23T02:33:52.495Z,100.00
2023-12-23T02:36:33.967Z,100.00
2023-12-23T02:39:15.445Z,100.00
2023-12-23T02:41:53.179Z,100.00
2023-12-23T02:44:32.865Z,100.00
2023-12-23T02:47:13.097Z,100.00
2023-12-23T02:49:52.664Z,100.00
2023-12-23T02:52:32.780Z,100.00
2023-12-23T02:55:12.413Z,100.00
2023-12-23T02:57:51.927Z,100.00
2023-12-23T03:00:32.207Z,100.00
2023-12-23T03:03:11.846Z,100.00
2023-12-23T03:05:51.814Z,100.00
2023-12-23T03:08:31.773Z,100.00
2023-12-23T03:11:11.719Z,100.00
2023-12-23T03:13:53.208Z,100.00
2023-12-23T03:16:35.719Z,100.00
2023-12-23T03:19:15.012Z,100.00
2023-12-23T03:21:54.579Z,100.00
2023-12-23T03:24:34.158Z,100.00
2023-12-23T03:27:13.782Z,100.00
2023-12-23T03:29:53.485Z,100.00
2023-12-23T03:32:33.584Z,100.00
2023-12-23T03:35:13.722Z,100.00
2023-12-23T03:37:53.384Z,100.00
2023-12-23T03:40:32.887Z,100.00
2023-12-23T03:43:12.976Z,100.00
2023-12-23T03:45:52.753Z,100.00
2023-12-23T03:48:34.576Z,100.00
2023-12-23T03:51:14.274Z,100.00
2023-12-23T03:53:53.834Z,100.00
2023-12-23T03:56:33.917Z,100.00
2023-12-23T03:59:14.359Z,100.00
2023-12-23T04:01:54.003Z,100.00
2023-12-23T04:04:38.480Z,100.00
2023-12-23T04:07:18.149Z,100.00
2023-12-23T04:09:57.828Z,100.00
2023-12-23T04:12:38.006Z,100.00
2023-12-23T04:15:17.706Z,100.00
2023-12-23T04:17:57.540Z,100.00
2023-12-23T04:20:38.374Z,100.00
2023-12-23T04:23:18.051Z,100.00
2023-12-23T04:25:57.661Z,100.00
2023-12-23T04:28:40.282Z,100.00
2023-12-23T04:31:20.021Z,100.00
2023-12-23T04:34:00.238Z,100.00
2023-12-23T04:36:40.280Z,100.00
2023-12-23T04:39:20.004Z,100.00
2023-12-23T04:44:39.849Z,100.00
2023-12-23T04:47:19.699Z,100.00
2023-12-23T04:49:59.299Z,100.00
2023-12-23T04:52:38.887Z,100.00
2023-12-23T04:55:18.567Z,100.00
2023-12-23T04:57:59.170Z,100.00
2023-12-23T05:00:38.714Z,100.00
2023-12-23T05:03:18.963Z,100.00
2023-12-23T05:05:58.630Z,100.00
2023-12-23T05:08:38.856Z,100.00
2023-12-23T05:11:18.653Z,100.00
2023-12-23T05:13:58.166Z,100.00
2023-12-23T05:16:37.909Z,100.00
2023-12-23T05:19:17.238Z,100.00
2023-12-23T05:21:59.436Z,100.00
2023-12-23T05:24:39.395Z,100.00
2023-12-23T05:27:19.168Z,100.00
2023-12-23T05:29:59.005Z,100.00
2023-12-23T05:32:38.867Z,100.00
2023-12-23T05:35:18.543Z,100.00
2023-12-23T05:38:00.587Z,100.00
2023-12-23T05:40:40.787Z,100.00
2023-12-23T05:43:21.053Z,100.00
2023-12-23T05:46:00.607Z,100.00
2023-12-23T05:48:40.454Z,100.00
2023-12-23T05:51:20.069Z,100.00
2023-12-23T05:53:59.631Z,100.00
2023-12-23T05:56:39.278Z,100.00
2023-12-23T05:59:19.031Z,100.00
2023-12-23T06:01:58.902Z,100.00
2023-12-23T06:04:39.109Z,100.00
2023-12-23T06:07:18.789Z,100.00
2023-12-23T06:09:58.640Z,100.00
2023-12-23T06:12:38.091Z,100.00
2023-12-23T06:15:18.683Z,100.00
2023-12-23T06:18:04.103Z,100.00
2023-12-23T06:20:43.555Z,100.00
2023-12-23T06:23:23.518Z,100.00
2023-12-23T06:26:06.262Z,100.00
2023-12-23T06:28:46.362Z,100.00
2023-12-23T06:31:26.019Z,100.00
2023-12-23T06:34:05.776Z,100.00
2023-12-23T06:36:45.132Z,100.00
2023-12-23T06:39:25.656Z,100.00
2023-12-23T06:42:05.330Z,100.00
2023-12-23T06:44:45.023Z,100.00
2023-12-23T06:47:24.832Z,100.00
2023-12-23T06:50:04.376Z,100.00
2023-12-23T06:52:43.910Z,100.00
2023-12-23T06:55:23.607Z,100.00
2023-12-23T06:58:03.194Z,100.00
2023-12-23T07:00:42.692Z,100.00
2023-12-23T07:03:22.953Z,100.00
2023-12-23T07:06:02.809Z,100.00
2023-12-23T07:08:42.645Z,100.00
2023-12-23T07:11:22.318Z,100.00
2023-12-23T07:14:02.185Z,100.00
2023-12-23T07:16:43.352Z,100.00
2023-12-23T07:19:23.119Z,100.00
2023-12-23T07:22:03.988Z,100.00
2023-12-23T07:24:43.622Z,100.00
2023-12-23T07:27:23.475Z,100.00
2023-12-23T07:30:04.707Z,100.00
2023-12-23T07:32:44.527Z,100.00
2023-12-23T07:35:24.824Z,100.00
2023-12-23T07:38:04.514Z,100.00
2023-12-23T07:40:44.117Z,100.00
2023-12-23T07:43:24.889Z,100.00
2023-12-23T07:46:07.033Z,100.00
2023-12-23T07:48:46.788Z,100.00
2023-12-23T07:51:26.505Z,100.00
2023-12-23T07:54:06.602Z,100.00
2023-12-23T07:56:46.273Z,100.00
2023-12-23T07:59:26.070Z,100.00
2023-12-23T08:02:06.018Z,100.00
2023-12-23T08:04:46.185Z,100.00
2023-12-23T08:07:25.886Z,100.00
2023-12-23T08:10:06.875Z,100.00
2023-12-23T08:12:47.153Z,100.00
2023-12-23T08:15:26.956Z,100.00
2023-12-23T08:18:07.362Z,100.00
2023-12-23T08:20:47.399Z,100.00
2023-12-23T08:23:27.161Z,100.00
2023-12-23T08:26:07.048Z,100.00
2023-12-23T08:28:47.296Z,100.00
2023-12-23T08:31:26.921Z,100.00
2023-12-23T08:34:06.722Z,100.00
2023-12-23T08:36:46.380Z,100.00
2023-12-23T08:39:26.198Z,100.00
2023-12-23T08:42:06.555Z,100.00
2023-12-23T08:44:47.231Z,100.00
2023-12-23T08:47:27.347Z,100.00
2023-12-23T08:50:07.575Z,100.00
2023-12-23T08:52:47.332Z,100.00
2023-12-23T08:55:26.935Z,100.00
2023-12-23T08:58:06.755Z,100.00
2023-12-23T09:00:47.102Z,100.00
2023-12-23T09:03:28.423Z,100.00
2023-12-23T09:06:08.685Z,100.00
2023-12-23T09:08:49.667Z,100.00
2023-12-23T09:11:31.882Z,100.00
2023-12-23T09:14:13.846Z,100.00
2023-12-23T09:16:53.472Z,100.00
2023-12-23T09:19:35.166Z,100.00
2023-12-23T09:22:14.780Z,100.00
2023-12-23T09:24:54.343Z,100.00
2023-12-23T09:27:34.051Z,100.00
2023-12-23T09:30:14.103Z,100.00
2023-12-23T09:32:53.689Z,100.00
2023-12-23T09:35:33.139Z,100.00
2023-12-23T09:38:12.997Z,100.00
2023-12-23T09:40:52.603Z,100.00
2023-12-23T09:43:34.248Z,100.00
2023-12-23T09:46:18.830Z,100.00
2023-12-23T09:48:58.548Z,100.00
2023-12-23T09:51:38.168Z,100.00
2023-12-23T09:54:24.315Z,100.00
2023-12-23T09:57:04.263Z,100.00
2023-12-23T09:59:43.799Z,100.00
2023-12-23T10:02:23.378Z,100.00
2023-12-23T10:05:02.953Z,100.00
2023-12-23T10:07:42.518Z,100.00
2023-12-23T10:10:22.160Z,100.00
2023-12-23T10:13:01.892Z,100.00
2023-12-23T10:15:42.546Z,100.00
2023-12-23T10:18:22.257Z,100.00
2023-12-23T10:21:01.851Z,100.00
2023-12-23T10:23:41.475Z,100.00
2023-12-23T10:26:21.167Z,100.00
2023-12-23T10:29:07.023Z,100.00
2023-12-23T10:31:52.032Z,100.00
2023-12-23T10:34:46.496Z,100.00
2023-12-23T10:37:26.853Z,100.00
2023-12-23T10:40:29.418Z,100.00
2023-12-23T10:43:10.075Z,99.49
2023-12-23T10:45:50.883Z,98.72
2023-12-23T10:48:35.252Z,98.45
2023-12-23T10:51:15.731Z,99.08
2023-12-23T10:54:00.364Z,98.40
2023-12-23T10:56:42.068Z,97.79
2023-12-23T10:59:22.954Z,97.83
2023-12-23T11:02:16.890Z,97.20
2023-12-23T11:04:58.907Z,97.75
2023-12-23T11:07:49.157Z,98.33
2023-12-23T11:10:31.870Z,98.25
2023-12-23T11:13:11.573Z,97.33
2023-12-23T11:15:51.249Z,97.10
2023-12-23T11:18:30.943Z,97.26
2023-12-23T11:21:18.982Z,96.33
2023-12-23T11:24:01.024Z,96.39
2023-12-23T11:26:39.209Z,95.51
2023-12-23T11:29:22.731Z,94.98
2023-12-23T11:32:15.184Z,95.26
2023-12-23T11:34:54.598Z,95.16
2023-12-23T11:37:55.815Z,94.40
2023-12-23T11:40:35.470Z,93.90
2023-12-23T11:43:16.617Z,93.00
2023-12-23T11:45:56.302Z,93.71
2023-12-23T11:48:36.007Z,93.89
2023-12-23T11:51:16.327Z,93.33
2023-12-23T11:53:59.275Z,93.85
2023-12-23T11:56:36.274Z,92.73
2023-12-23T11:59:16.001Z,92.10
2023-12-23T12:01:55.597Z,92.75
2023-12-23T12:04:35.566Z,92.12
2023-12-23T12:07:15.450Z,92.33
2023-12-23T12:09:55.096Z,91.61
2023-12-23T12:12:34.781Z,92.16
2023-12-23T12:15:15.485Z,91.25
2023-12-23T12:17:55.429Z,91.43
2023-12-23T12:20:34.861Z,91.71
2023-12-23T12:23:14.681Z,92.42
2023-12-23T12:25:59.230Z,92.47
2023-12-23T12:28:38.873Z,92.59
2023-12-23T12:31:19.998Z,91.65
2023-12-23T12:34:00.767Z,92.58
2023-12-23T12:36:40.731Z,91.97
2023-12-23T12:39:24.628Z,92.10
2023-12-23T12:42:05.402Z,92.16
2023-12-23T12:44:45.060Z,92.12
2023-12-23T12:47:27.865Z,92.27
2023-12-23T12:50:09.368Z,92.19
2023-12-23T12:52:51.582Z,92.44
2023-12-23T12:55:30.999Z,92.51
2023-12-23T12:58:10.632Z,92.83
2023-12-23T13:00:51.828Z,93.23
2023-12-23T13:03:35.360Z,92.38
2023-12-23T13:06:15.358Z,92.70
2023-12-23T13:08:55.561Z,92.95
2023-12-23T13:11:36.492Z,92.40
2023-12-23T13:14:16.321Z,92.46
2023-12-23T13:16:57.962Z,91.89
2023-12-23T13:19:40.853Z,91.81
2023-12-23T13:22:20.548Z,91.80
2023-12-23T13:25:00.530Z,91.82
2023-12-23T13:27:48.609Z,91.72
2023-12-23T13:30:37.163Z,92.29
2023-12-23T13:33:16.745Z,91.58
2023-12-23T13:35:56.424Z,91.63
2023-12-23T13:38:36.673Z,91.74
2023-12-23T13:41:21.985Z,91.48
2023-12-23T13:44:01.457Z,91.59
2023-12-23T13:46:41.148Z,92.58
2023-12-23T13:49:21.410Z,92.72
2023-12-23T13:52:00.821Z,92.42
2023-12-23T13:54:40.645Z,91.98
2023-12-23T13:57:20.564Z,91.89
2023-12-23T14:00:00.311Z,91.80
2023-12-23T14:02:39.936Z,92.45
2023-12-23T14:05:22.862Z,92.51
2023-12-23T14:08:02.583Z,93.19
2023-12-23T14:10:47.398Z,93.00
2023-12-23T14:13:25.018Z,93.53
2023-12-23T14:16:05.304Z,93.51
2023-12-23T14:18:44.889Z,94.05
2023-12-23T14:21:27.545Z,94.11
2023-12-23T14:24:07.754Z,93.94
2023-12-23T14:26:47.544Z,93.75
2023-12-23T14:29:27.248Z,94.13
2023-12-23T14:32:06.938Z,94.19
2023-12-23T14:34:49.142Z,94.47
2023-12-23T14:37:35.711Z,94.91
2023-12-23T14:40:18.606Z,95.24
2023-12-23T14:42:58.436Z,95.12
2023-12-23T14:45:39.210Z,95.27
2023-12-23T14:48:19.566Z,94.88
2023-12-23T14:50:59.113Z,95.49
2023-12-23T14:53:39.036Z,95.10
2023-12-23T14:56:18.608Z,95.26
2023-12-23T14:58:58.239Z,95.42
2023-12-23T15:01:38.124Z,95.27
2023-12-23T15:04:17.928Z,95.31
2023-12-23T15:06:57.593Z,95.49
2023-12-23T15:09:37.327Z,95.48
2023-12-23T15:12:20.221Z,95.79
2023-12-23T15:14:59.898Z,95.65
2023-12-23T15:17:40.061Z,95.77
2023-12-23T15:20:19.389Z,95.92
2023-12-23T15:22:59.114Z,95.98
2023-12-23T15:25:38.822Z,96.49
2023-12-23T15:28:18.803Z,96.12
2023-12-23T15:30:59.120Z,96.00
2023-12-23T15:33:39.548Z,96.15
2023-12-23T15:36:19.540Z,96.35
2023-12-23T15:39:01.596Z,96.38
2023-12-23T15:41:45.150Z,96.63
2023-12-23T15:44:25.406Z,96.29
2023-12-23T15:47:05.067Z,96.50
2023-12-23T15:49:45.004Z,96.39
2023-12-23T15:52:27.184Z,96.46
2023-12-23T15:55:10.398Z,96.36
2023-12-23T15:57:49.998Z,96.58
2023-12-23T16:00:30.339Z,96.74
2023-12-23T16:03:09.779Z,96.88
2023-12-23T16:05:49.965Z,96.88
2023-12-23T16:08:30.896Z,96.88
2023-12-23T16:11:10.417Z,97.20
2023-12-23T16:13:50.744Z,97.00
2023-12-23T16:16:31.468Z,97.27
2023-12-23T16:19:11.083Z,97.29
2023-12-23T16:21:52.357Z,97.34
2023-12-23T16:24:33.474Z,97.42
2023-12-23T16:27:13.419Z,97.36
2023-12-23T16:29:53.303Z,97.43
2023-12-23T16:32:33.235Z,97.49
2023-12-23T16:35:12.972Z,97.62
2023-12-23T16:37:52.670Z,97.44
2023-12-23T16:40:32.295Z,97.39
2023-12-23T16:43:12.117Z,97.44
2023-12-23T16:45:53.468Z,97.28
2023-12-23T16:48:33.702Z,97.42
2023-12-23T16:51:13.172Z,97.68
2023-12-23T16:53:53.357Z,97.30
2023-12-23T16:56:34.354Z,97.61
2023-12-23T16:59:14.222Z,97.32
2023-12-23T17:01:53.951Z,97.31
2023-12-23T17:04:33.613Z,97.56
2023-12-23T17:07:13.181Z,97.40
2023-12-23T17:09:52.748Z,97.16
2023-12-23T17:12:36.800Z,97.12
2023-12-23T17:15:15.463Z,97.35
2023-12-23T17:17:55.701Z,97.65
2023-12-23T17:20:35.444Z,97.18
2023-12-23T17:23:15.064Z,97.43
2023-12-23T17:25:55.147Z,97.45
2023-12-23T17:28:35.061Z,97.27
2023-12-23T17:31:14.674Z,97.56
2023-12-23T17:33:54.352Z,97.72
2023-12-23T17:36:33.974Z,96.78
2023-12-23T17:39:13.502Z,96.43
2023-12-23T17:41:53.749Z,96.70
2023-12-23T17:44:33.315Z,96.86
2023-12-23T17:47:14.346Z,96.44
2023-12-23T17:49:54.237Z,96.73
2023-12-23T17:52:33.915Z,96.63
2023-12-23T17:55:13.820Z,96.85
2023-12-23T17:57:53.450Z,96.38
2023-12-23T18:00:33.188Z,96.47
2023-12-23T18:03:19.023Z,96.08
2023-12-23T18:05:58.564Z,96.12
2023-12-23T18:08:38.555Z,96.25
2023-12-23T18:11:18.192Z,96.19
2023-12-23T18:13:57.873Z,96.49
2023-12-23T18:16:37.583Z,96.41
2023-12-23T18:19:17.262Z,96.39
2023-12-23T18:21:59.043Z,96.18
2023-12-23T18:24:37.605Z,95.94
2023-12-23T18:27:17.499Z,96.21
2023-12-23T18:29:57.315Z,96.04
2023-12-23T18:32:37.215Z,96.23
2023-12-23T18:35:17.063Z,96.40
2023-12-23T18:37:56.536Z,96.75
2023-12-23T18:40:39.805Z,97.27
2023-12-23T18:43:19.501Z,97.75
2023-12-23T18:45:59.315Z,97.74
2023-12-23T18:48:39.434Z,97.97
2023-12-23T18:51:19.119Z,98.48
2023-12-23T18:53:59.275Z,98.68
2023-12-23T18:56:38.942Z,100.00
2023-12-23T18:59:18.689Z,100.00
2023-12-23T19:02:02.903Z,100.00
2023-12-23T19:04:43.092Z,100.00
2023-12-23T19:07:22.598Z,100.00
2023-12-23T19:10:02.207Z,99.74
2023-12-23T19:12:41.857Z,99.45
2023-12-23T19:15:21.591Z,97.74
2023-12-23T19:18:01.397Z,97.52
2023-12-23T19:20:41.016Z,96.72
2023-12-23T19:23:21.326Z,96.19
2023-12-23T19:26:08.063Z,95.97
2023-12-23T19:28:49.242Z,95.67
2023-12-23T19:31:32.330Z,95.69
2023-12-23T19:34:10.423Z,95.47
2023-12-23T19:36:50.204Z,95.36
2023-12-23T19:39:31.735Z,95.40
2023-12-23T19:42:13.468Z,95.45
2023-12-23T19:44:53.073Z,95.58
2023-12-23T19:47:35.524Z,95.84
2023-12-23T19:50:18.575Z,95.89
2023-12-23T19:52:58.323Z,95.99
2023-12-23T19:55:38.556Z,95.48
2023-12-23T19:58:18.148Z,95.16
2023-12-23T20:00:58.856Z,95.75
2023-12-23T20:03:42.307Z,96.12
2023-12-23T20:06:22.178Z,96.21
2023-12-23T20:09:04.620Z,96.08
2023-12-23T20:11:44.204Z,96.37
2023-12-23T20:14:24.302Z,96.45
2023-12-23T20:17:04.720Z,97.36
2023-12-23T20:19:46.995Z,97.35
2023-12-23T20:22:26.829Z,97.65
2023-12-23T20:25:09.096Z,98.33
2023-12-23T20:27:48.767Z,98.54
2023-12-23T20:30:28.517Z,98.97
2023-12-23T20:33:08.770Z,99.11
2023-12-23T20:35:48.539Z,98.57
2023-12-23T20:38:29.444Z,97.98
2023-12-23T20:41:11.842Z,97.35
2023-12-23T20:43:53.834Z,97.06
2023-12-23T20:46:33.784Z,96.90
2023-12-23T20:49:13.506Z,96.83
2023-12-23T20:51:53.168Z,96.79
2023-12-23T20:54:35.087Z,96.78
2023-12-23T20:57:15.262Z,96.54
2023-12-23T20:59:55.364Z,96.82
2023-12-23T21:02:35.461Z,96.98
2023-12-23T21:05:15.347Z,97.04
2023-12-23T21:07:55.195Z,97.02
2023-12-23T21:10:37.238Z,97.25
2023-12-23T21:13:14.608Z,97.79
2023-12-23T21:15:54.296Z,98.04
2023-12-23T21:18:34.020Z,98.22
2023-12-23T21:21:14.650Z,98.33
2023-12-23T21:24:04.985Z,99.16
2023-12-23T21:26:45.607Z,99.53
2023-12-23T21:29:25.668Z,99.87
2023-12-23T21:32:06.600Z,100.00
2023-12-23T21:34:46.574Z,100.00
2023-12-23T21:37:26.034Z,100.00
2023-12-23T21:40:06.187Z,100.00
2023-12-23T21:42:45.814Z,100.00
2023-12-23T21:45:25.398Z,100.00
2023-12-23T21:48:06.103Z,100.00
2023-12-23T21:50:45.872Z,100.00
2023-12-23T21:53:25.945Z,99.88
2023-12-23T21:56:05.982Z,99.76
2023-12-23T21:58:45.763Z,99.74
2023-12-23T22:01:25.413Z,99.58
2023-12-23T22:04:05.605Z,100.00
2023-12-23T22:06:47.055Z,100.00
2023-12-23T22:09:26.937Z,100.00
2023-12-23T22:12:07.780Z,100.00
2023-12-23T22:14:48.725Z,100.00
2023-12-23T22:17:28.524Z,100.00
2023-12-23T22:20:09.030Z,100.00
2023-12-23T22:22:48.830Z,100.00
2023-12-23T22:25:28.825Z,100.00
2023-12-23T22:28:09.073Z,100.00
2023-12-23T22:30:49.293Z,100.00
2023-12-23T22:33:29.612Z,100.00
2023-12-23T22:36:11.801Z,100.00
2023-12-23T22:38:51.652Z,100.00
2023-12-23T22:41:32.744Z,100.00
2023-12-23T22:44:12.306Z,100.00
2023-12-23T22:46:52.666Z,100.00
2023-12-23T22:49:32.264Z,100.00
2023-12-23T22:52:11.813Z,100.00
2023-12-23T22:54:51.464Z,100.00
2023-12-23T22:57:32.078Z,100.00
2023-12-23T23:00:19.155Z,100.00
2023-12-23T23:03:00.891Z,100.00
2023-12-23T23:05:40.457Z,100.00
2023-12-23T23:08:20.137Z,100.00
2023-12-23T23:11:00.009Z,100.00
2023-12-23T23:13:39.737Z,100.00
2023-12-23T23:16:19.326Z,100.00
2023-12-23T23:18:59.190Z,100.00
2023-12-23T23:21:38.732Z,100.00
2023-12-23T23:24:18.349Z,100.00
2023-12-23T23:26:58.080Z,100.00
2023-12-23T23:29:38.562Z,100.00
2023-12-23T23:32:19.430Z,100.00
2023-12-23T23:35:05.155Z,100.00
2023-12-23T23:37:38.891Z,100.00
2023-12-23T23:40:18.616Z,100.00
2023-12-23T23:42:58.828Z,100.00
2023-12-23T23:45:40.713Z,100.00
2023-12-23T23:48:20.310Z,100.00
2023-12-23T23:51:04.352Z,100.00
2023-12-23T23:53:43.930Z,100.00
2023-12-23T23:56:23.704Z,100.00
2023-12-23T23:59:03.676Z,100.00
